Cushing, OK

9:17 PM CST on February 21, 2018 (GMT -0600)
Cushing Municipal | | Change Station
Active Advisory: Winter Weather Advisory

Elev 915 ft 35.95 °N, 96.77 °W | Updated 22 minutes ago

Overcast
Overcast
27 °F
Feels Like 23 °F
N
4
Wind Variable Wind from NE

Today
High -- | Low -- °F
--% Chance of Precip.
Yesterday
High -- | Low -- °F
Precip. -- in
Pressure 30.35 in
Visibility 7.0 miles
Clouds Overcast 500 ft
Windchill 23 °F
Dew Point 26 °F
Humidity 96%
Rainfall 0.00 in
Snow Depth Not available.
7:07 AM 6:14 PM
Waxing Crescent, 37% visible
METAR KCUH 220255Z AUTO 04003KT 7SM OVC005 M03/M04 A3035 RMK AO2 T10301036
Pressure 30.35 in
Visibility 7.0 miles
Clouds Overcast 500 ft
Windchill 23 °F
Dew Point 26 °F
Humidity 96%
Rainfall 0.00 in
Snow Depth Not available.
7:07 AM 6:14 PM
Waxing Crescent, 37% visible
METAR KCUH 220255Z AUTO 04003KT 7SM OVC005 M03/M04 A3035 RMK AO2 T10301036

Get Your Daily Forecast Email!

Thanks for signing up!

Be on the lookout for a verification email in your inbox.

You'll start receiving severe weather alerts in your inbox..

×

10-Day Weather Forecast

Almanac

Astronomy

Feb. 21, 2018 Rise Set
Actual Time
Civil Twilight
Nautical Twilight
Astronomical Twilight
Moon
Length of Visible Light
Length of Day
Tomorrow will be .
, % of the Moon is Illuminated

Today's Extremes

State Highs State Lows

Community

WunderPhotos

Category 6

Welcome to Category 6. This is the collective home for Weather Underground's featured writeups by Dr. Jeff Masters (right), Bob Henson (left), Chris Burt, and other regular contributors.

Nearby

Air Quality

  Air Quality AQ Index Pollutant
Not available.

Snow Depth

Station Depth Elevation

Earthquake Activity

City Distance Mag. Time & Date
Minimum magnitude displayed is 2.5.

Coastal Water Temperatures

Place Temperature

Stations

Nearby Weather Stations

Station Location Temp. Windchill Dew Point Humidity Wind Precip. Elev Updated Type
                   

Watches & Warnings

Winter Weather Advisory
Issued: 7:13 PM CST Feb. 21, 2018 – National Weather Service

... Winter Weather Advisory remains in effect until 9 am CST
Thursday...

* what... areas of freezing drizzle overnight through Thursday
morning. The ice will result in slick roads. Additional ice
accumulations will be light, but will still create slick
conditions on roadways.

* Where... portions of central, east central, northern, northwest,
   southern, southwest and western Oklahoma and northern Texas.

* When... until 9 am CST Thursday.

* Additional details... a glaze of ice will create slick roadways.

Precautionary/preparedness actions...

A Winter Weather Advisory means that periods of freezing rain
will cause travel difficulties. Be prepared for slippery roads.
Slow down and use caution while driving. The latest Road
conditions for Oklahoma can be obtained by calling
8 4 4 4 6 5 4 9 9 7, or for Texas by calling 8 0 0 4 5 2 9 2 9 2.